Time;durP1;ratioP1;P1;durP2;ratioP2;P2;SDS_P1;SDS_P2;PMS_P1;PMS_P2;Temp;Humidity;BMP_temperature;BMP_pressure;BME280_temperature;BME280_humidity;BME280_pressure;Samples;Min_cycle;Max_cycle;Signal;HPM_P1;HPM_P2
2022/12/13 00:00:17;;;;;;;;;42.50;38.00;;;;;0.54;61.29;99866.81;5034425;28;45421;-58
2022/12/13 00:02:43;;;;;;;;;46.00;39.50;;;;;0.55;61.25;99862.50;5027676;28;45371;-55
2022/12/13 00:05:09;;;;;;;;;34.75;31.50;;;;;0.60;61.11;99860.75;5034462;28;45519;-60
2022/12/13 00:07:35;;;;;;;;;50.50;42.00;;;;;0.60;60.80;99855.56;5034836;28;45405;-57
2022/12/13 00:10:00;;;;;;;;;30.50;26.75;;;;;0.59;61.58;99856.41;5034929;28;45483;-55
2022/12/13 00:12:26;;;;;;;;;38.75;33.50;;;;;0.38;61.31;99822.06;5033759;28;45565;-59
2022/12/13 00:14:52;;;;;;;;;36.25;33.25;;;;;0.60;61.24;99852.97;5032313;28;46353;-57
2022/12/13 00:17:17;;;;;;;;;35.50;34.00;;;;;0.62;60.52;99852.09;5049848;28;45658;-59
2022/12/13 00:19:42;;;;;;;;;35.50;34.00;;;;;0.59;60.14;99848.66;5034527;28;45458;-61
2022/12/13 00:22:08;;;;;;;;;45.25;34.25;;;;;0.59;60.05;99851.25;5024427;28;45423;-57
2022/12/13 00:24:33;;;;;;;;;41.50;37.25;;;;;0.52;60.48;99836.66;5034586;28;45514;-58
2022/12/13 00:26:59;;;;;;;;;40.75;34.25;;;;;0.54;61.00;99834.88;5038383;28;45392;-59
2022/12/13 00:29:24;;;;;;;;;39.00;34.50;;;;;0.50;60.71;99831.47;5038470;28;45427;-62
2022/12/13 00:31:50;;;;;;;;;40.25;33.75;;;;;0.57;60.43;99834.88;5030123;28;45436;-56
2022/12/13 00:34:15;;;;;;;;;37.50;34.75;;;;;0.55;59.87;99834.88;5037654;28;46249;-60
2022/12/13 00:36:41;;;;;;;;;30.75;30.00;;;;;0.55;60.24;99836.63;5037714;28;45434;-58
2022/12/13 00:39:06;;;;;;;;;36.25;34.75;;;;;0.57;60.88;99835.75;5037885;28;45691;-60
2022/12/13 00:41:34;;;;;;;;;34.00;32.25;;;;;0.59;60.04;99836.59;5029315;28;45365;-60
2022/12/13 00:44:01;;;;;;;;;35.00;30.00;;;;;0.58;60.55;99829.69;5033882;28;46247;-58
2022/12/13 00:46:27;;;;;;;;;32.50;30.25;;;;;0.57;59.64;99824.53;5037716;28;45476;-59
2022/12/13 00:48:56;;;;;;;;;37.00;35.00;;;;;0.63;59.73;99838.28;5036791;28;45534;-58
2022/12/13 00:51:23;;;;;;;;;38.25;34.50;;;;;0.66;60.64;99827.03;5022677;28;45416;-56
2022/12/13 00:53:48;;;;;;;;;35.50;31.00;;;;;0.67;59.02;99826.16;5037381;28;46719;-57
2022/12/13 00:56:20;;;;;;;;;37.50;30.00;;;;;0.65;58.90;99821.03;5037344;28;45493;-55
2022/12/13 00:58:45;;;;;;;;;31.50;27.75;;;;;0.65;59.34;99820.16;5037670;28;45447;-58
2022/12/13 01:01:13;;;;;;;;;29.75;27.00;;;;;0.72;59.97;99821.81;5032491;28;45575;-60
2022/12/13 01:03:39;;;;;;;;;35.25;32.00;;;;;0.76;58.71;99828.69;5036731;28;45404;-59
2022/12/13 01:06:13;;;;;;;;;32.75;31.75;;;;;0.78;59.27;99826.97;5036439;28;45397;-61
2022/12/13 01:08:39;;;;;;;;;35.25;28.25;;;;;0.83;58.73;99819.13;5037316;28;45377;-61
2022/12/13 01:11:06;;;;;;;;;37.00;32.25;;;;;0.78;58.94;99813.13;5035204;28;45626;-58
2022/12/13 01:13:31;;;;;;;;;27.75;24.25;;;;;0.80;58.41;99829.53;5035118;28;45467;-58
2022/12/13 01:15:56;;;;;;;;;35.75;33.25;;;;;0.73;57.69;99825.28;5036048;28;45475;-59
2022/12/13 01:18:22;;;;;;;;;31.00;30.00;;;;;0.71;57.92;99824.44;5037282;28;45446;-59
2022/12/13 01:20:59;;;;;;;;;35.50;30.75;;;;;0.72;58.78;99826.13;5034850;28;45441;-53
2022/12/13 01:23:25;;;;;;;;;34.00;30.25;;;;;0.75;57.58;99820.94;5036140;28;46381;-54
2022/12/13 01:25:50;;;;;;;;;29.00;27.25;;;;;0.70;57.96;99815.81;5037048;28;45459;-53
2022/12/13 01:28:16;;;;;;;;;31.25;26.50;;;;;0.71;57.89;99819.25;5037000;28;45491;-55
2022/12/13 01:30:41;;;;;;;;;29.50;25.00;;;;;0.69;57.73;99818.41;5035748;28;45476;-57
2022/12/13 01:33:06;;;;;;;;;32.50;30.25;;;;;0.69;57.64;99811.50;5026369;28;46495;-57
2022/12/13 01:35:34;;;;;;;;;35.00;29.25;;;;;0.69;58.02;99810.63;5025541;28;45501;-54
2022/12/13 01:38:00;;;;;;;;;28.75;23.75;;;;;0.70;58.42;99812.34;5028158;28;45542;-56
2022/12/13 01:40:26;;;;;;;;;25.75;21.75;;;;;0.63;57.72;99799.47;5031553;28;45427;-55
2022/12/13 01:42:51;;;;;;;;;35.25;28.50;;;;;0.65;57.48;99805.50;5030100;28;45570;-56
2022/12/13 01:45:27;;;;;;;;;29.25;23.50;;;;;0.60;57.25;99801.22;5036299;28;45262;-57
2022/12/13 01:48:00;;;;;;;;;29.00;27.25;;;;;0.59;57.42;99805.56;5016555;28;45523;-60
2022/12/13 01:50:41;;;;;;;;;28.75;27.50;;;;;0.66;57.14;99812.38;5022239;28;45394;-58
2022/12/13 01:53:09;;;;;;;;;28.75;25.25;;;;;0.60;56.59;99802.09;5028795;28;46433;-60
2022/12/13 01:55:39;;;;;;;;;28.50;28.25;;;;;0.60;57.35;99802.09;5031648;28;45399;-57
2022/12/13 01:58:05;;;;;;;;;25.00;23.00;;;;;0.61;56.94;99811.53;5028811;28;45531;-56
2022/12/13 02:00:34;;;;;;;;;22.75;21.00;;;;;0.52;56.65;99810.78;5036639;28;45628;-59
2022/12/13 02:03:01;;;;;;;;;26.75;24.50;;;;;0.59;57.49;99818.50;5027354;28;46496;-55
2022/12/13 02:05:35;;;;;;;;;26.50;25.00;;;;;0.54;57.35;99802.13;5022393;28;45491;-55
2022/12/13 02:08:02;;;;;;;;;23.50;20.00;;;;;0.60;57.02;99815.03;5036739;28;45326;-58
2022/12/13 02:10:28;;;;;;;;;26.75;22.75;;;;;0.60;56.82;99820.19;5036405;28;45626;-55
2022/12/13 02:12:53;;;;;;;;;21.75;19.75;;;;;0.61;57.67;99816.72;5027849;28;46281;-55
2022/12/13 02:15:20;;;;;;;;;24.50;22.25;;;;;0.59;57.09;99826.25;5024803;28;45573;-53
2022/12/13 02:18:04;;;;;;;;;27.25;25.00;;;;;0.62;56.04;99827.97;5035038;28;45396;-50
2022/12/13 02:21:11;;;;;;;;;25.50;20.25;;;;;0.60;57.49;99812.44;5036436;28;45518;-58
2022/12/13 02:23:53;;;;;;;;;24.75;20.25;;;;;0.61;56.58;99821.03;5026482;28;45393;-54
2022/12/13 02:26:46;;;;;;;;;24.25;24.25;;;;;0.73;56.91;99815.78;5035700;28;45481;-53
2022/12/13 02:29:51;;;;;;;;;24.00;21.75;;;;;0.77;56.75;99824.38;5035904;28;45519;-61
2022/12/13 02:32:16;;;;;;;;;26.25;20.75;;;;;0.70;55.33;99823.59;5023509;28;45462;-57
2022/12/13 02:34:54;;;;;;;;;27.75;25.50;;;;;0.66;55.73;99812.38;5033943;28;46589;-56
2022/12/13 02:37:42;;;;;;;;;22.00;20.75;;;;;0.69;57.08;99821.00;5034540;28;45495;-56
2022/12/13 02:40:27;;;;;;;;;25.50;21.25;;;;;0.65;55.43;99813.25;5035838;28;45453;-55
2022/12/13 02:43:05;;;;;;;;;28.75;28.00;;;;;0.66;56.11;99814.97;5020881;28;45501;-56
2022/12/13 02:45:42;;;;;;;;;26.75;26.75;;;;;0.68;56.07;99806.34;5036225;28;46749;-56
2022/12/13 02:48:10;;;;;;;;;19.25;19.25;;;;;0.60;55.21;99796.91;5021199;28;45483;-58
2022/12/13 02:50:37;;;;;;;;;22.75;21.25;;;;;0.61;55.55;99806.38;5035925;28;45436;-57
2022/12/13 02:53:04;;;;;;;;;21.75;20.50;;;;;0.58;56.00;99802.97;5029427;28;45522;-57
2022/12/13 02:55:34;;;;;;;;;23.75;23.25;;;;;0.57;55.55;99794.34;5028654;28;45670;-59
2022/12/13 02:57:59;;;;;;;;;25.00;23.50;;;;;0.55;55.61;99795.22;5022374;28;45476;-55
2022/12/13 03:00:52;;;;;;;;;26.75;25.25;;;;;0.54;55.37;99796.97;5026060;28;45491;-54
2022/12/13 03:03:31;;;;;;;;;25.75;22.75;;;;;0.55;55.63;99793.50;5030547;28;45445;-56
2022/12/13 03:06:29;;;;;;;;;23.00;20.50;;;;;0.50;55.94;99797.00;5034840;28;45415;-56
2022/12/13 03:09:13;;;;;;;;;20.00;18.50;;;;;0.50;55.58;99794.41;5035504;28;45456;-59
2022/12/13 03:15:10;;;;;;;;;30.25;25.00;;;;;0.43;55.43;99797.03;5026807;28;45398;-55
2022/12/13 03:17:42;;;;;;;;;22.75;19.75;;;;;0.36;55.60;99773.81;5025898;28;45558;-55
2022/12/13 03:20:08;;;;;;;;;20.75;19.25;;;;;0.43;55.17;99773.75;5035197;28;45506;-60
2022/12/13 03:22:34;;;;;;;;;27.25;23.50;;;;;0.46;55.23;99780.63;5031362;28;45434;-55
2022/12/13 03:25:00;;;;;;;;;27.00;23.75;;;;;0.41;55.99;99774.63;5035586;28;45623;-56
2022/12/13 03:27:25;;;;;;;;;25.00;24.50;;;;;0.40;56.18;99763.44;5034964;28;46425;-57
2022/12/13 03:29:51;;;;;;;;;26.00;22.25;;;;;0.48;55.49;99771.13;5035216;28;45447;-57
2022/12/13 03:32:16;;;;;;;;;27.25;24.00;;;;;0.43;54.16;99767.69;5034175;28;45415;-59
2022/12/13 03:34:42;;;;;;;;;30.50;24.75;;;;;0.36;54.58;99756.56;5035181;28;45435;-55
2022/12/13 03:37:07;;;;;;;;;24.50;23.00;;;;;0.39;55.16;99763.44;5033592;28;46245;-56
2022/12/13 03:39:33;;;;;;;;;25.25;25.25;;;;;0.44;55.82;99764.25;5034123;28;45384;-56
2022/12/13 03:41:58;;;;;;;;;23.25;23.00;;;;;0.46;54.39;99770.28;5026786;28;45790;-60
2022/12/13 03:44:23;;;;;;;;;23.50;20.50;;;;;0.44;55.25;99761.69;5023860;28;45381;-56
2022/12/13 03:46:49;;;;;;;;;24.50;24.25;;;;;0.47;55.85;99771.16;5030109;28;46326;-58
2022/12/13 03:49:14;;;;;;;;;24.50;18.25;;;;;0.47;55.31;99768.56;5025744;28;45408;-58
2022/12/13 03:51:40;;;;;;;;;27.50;23.50;;;;;0.46;55.40;99772.88;5033795;28;45393;-58
2022/12/13 03:54:05;;;;;;;;;24.00;21.25;;;;;0.49;55.29;99778.03;5034951;28;45670;-55
2022/12/13 03:56:31;;;;;;;;;27.00;25.00;;;;;0.51;53.90;99780.59;5034947;28;45562;-54
2022/12/13 03:58:56;;;;;;;;;28.00;26.00;;;;;0.41;55.05;99777.22;5030655;28;45427;-55
2022/12/13 04:01:22;;;;;;;;;25.75;22.00;;;;;0.40;54.61;99770.31;5027554;28;46010;-52
2022/12/13 04:03:47;;;;;;;;;27.75;21.25;;;;;0.36;55.76;99772.06;5026169;28;45521;-59
2022/12/13 04:06:14;;;;;;;;;29.25;23.00;;;;;0.41;55.96;99791.00;5028988;28;46118;-60
2022/12/13 04:08:39;;;;;;;;;31.25;23.50;;;;;0.39;55.38;99779.81;5031214;28;45479;-56
2022/12/13 04:13:51;;;;;;;;;32.75;23.75;;;;;0.34;55.86;99776.41;5037355;28;45447;-60
2022/12/13 04:16:16;;;;;;;;;25.25;23.50;;;;;0.32;54.85;99769.50;5038079;28;46544;-53
2022/12/13 04:18:42;;;;;;;;;27.25;25.25;;;;;0.30;55.59;99773.88;5037993;28;45367;-53
2022/12/13 04:21:07;;;;;;;;;29.50;25.25;;;;;0.38;54.71;99770.34;5038022;28;45389;-53
2022/12/13 04:23:33;;;;;;;;;21.50;19.25;;;;;0.29;54.72;99766.97;5031598;28;45373;-56
2022/12/13 04:25:59;;;;;;;;;28.50;26.25;;;;;0.29;54.82;99761.78;5037508;28;46352;-57
2022/12/13 04:28:25;;;;;;;;;24.75;24.50;;;;;0.26;54.61;99766.97;5037778;28;45384;-56
2022/12/13 04:30:50;;;;;;;;;27.25;23.25;;;;;0.25;54.80;99754.94;5037199;28;45393;-53
2022/12/13 04:33:16;;;;;;;;;30.00;28.25;;;;;0.21;55.25;99743.72;5029877;28;45673;-62
2022/12/13 04:35:41;;;;;;;;;34.25;25.50;;;;;0.22;55.38;99758.41;5037599;28;45577;-53
2022/12/13 04:38:06;;;;;;;;;25.50;23.25;;;;;0.21;55.36;99743.72;5037664;28;45620;-56
2022/12/13 04:40:32;;;;;;;;;29.25;25.75;;;;;0.25;55.89;99740.28;5037820;28;45545;-57
2022/12/13 04:42:57;;;;;;;;;25.25;24.25;;;;;0.26;54.66;99735.94;5036752;28;45567;-60
2022/12/13 04:45:22;;;;;;;;;29.50;26.25;;;;;0.25;55.16;99742.84;5038129;28;45439;-56
2022/12/13 04:47:48;;;;;;;;;24.25;21.75;;;;;0.27;54.58;99735.06;5025134;28;45572;-53
2022/12/13 04:50:14;;;;;;;;;29.00;26.50;;;;;0.30;54.58;99748.00;5036522;28;45398;-55
2022/12/13 04:52:39;;;;;;;;;35.75;27.50;;;;;0.31;54.98;99753.16;5025810;28;45622;-57
2022/12/13 04:55:06;;;;;;;;;34.25;30.00;;;;;0.26;56.06;99747.16;5034141;28;45419;-56
2022/12/13 04:57:32;;;;;;;;;31.75;29.75;;;;;0.28;54.50;99748.00;5037337;28;45388;-54
2022/12/13 04:59:57;;;;;;;;;34.00;25.75;;;;;0.31;55.84;99749.72;5037457;28;45292;-54
2022/12/13 05:02:23;;;;;;;;;27.00;23.25;;;;;0.22;55.50;99725.63;5032239;28;45621;-56
2022/12/13 05:04:48;;;;;;;;;30.25;27.25;;;;;0.29;54.87;99741.09;5034218;28;46050;-52
2022/12/13 05:07:13;;;;;;;;;26.25;25.75;;;;;0.31;54.99;99729.03;5030662;28;45296;-57
2022/12/13 05:09:39;;;;;;;;;32.25;30.50;;;;;0.30;54.98;99724.72;5024776;28;45632;-51
2022/12/13 05:12:04;;;;;;;;;26.50;24.50;;;;;0.30;55.64;99730.75;5027774;28;45519;-57
2022/12/13 05:14:30;;;;;;;;;31.75;30.25;;;;;0.35;54.98;99738.44;5027130;28;46516;-55
2022/12/13 05:16:56;;;;;;;;;23.50;21.75;;;;;0.27;55.47;99732.47;5037071;28;45488;-57
2022/12/13 05:19:21;;;;;;;;;29.25;25.00;;;;;0.21;56.41;99739.41;5037061;28;45483;-57
2022/12/13 05:21:48;;;;;;;;;30.00;24.50;;;;;0.24;55.10;99735.94;5032577;28;45591;-57
2022/12/13 05:24:13;;;;;;;;;36.50;30.00;;;;;0.28;54.51;99741.97;5035769;28;46330;-53
2022/12/13 05:26:38;;;;;;;;;29.25;28.00;;;;;0.06;55.33;99705.94;5037143;28;45494;-60
2022/12/13 05:29:03;;;;;;;;;35.25;31.00;;;;;0.19;55.21;99728.25;5037249;28;45436;-54
2022/12/13 05:31:29;;;;;;;;;28.00;27.50;;;;;0.21;54.92;99731.66;5035994;28;45454;-53
2022/12/13 05:33:54;;;;;;;;;31.50;31.50;;;;;0.22;56.03;99728.22;5031287;28;45503;-58
2022/12/13 05:36:24;;;;;;;;;29.75;28.75;;;;;0.22;55.67;99725.63;5037089;28;45463;-52
2022/12/13 05:38:49;;;;;;;;;30.75;25.50;;;;;0.21;55.44;99731.66;5036075;28;45488;-53
2022/12/13 05:41:18;;;;;;;;;33.00;28.25;;;;;0.25;54.41;99742.84;5036562;28;45495;-58
2022/12/13 05:43:43;;;;;;;;;29.50;28.50;;;;;0.24;55.89;99745.44;5030995;28;45460;-54
2022/12/13 05:46:09;;;;;;;;;31.25;28.25;;;;;0.22;55.06;99741.16;5037060;28;45508;-54
2022/12/13 05:48:34;;;;;;;;;31.75;28.00;;;;;0.26;54.09;99756.63;5022679;28;45585;-60
2022/12/13 05:50:59;;;;;;;;;29.50;29.50;;;;;0.20;56.00;99763.56;5036624;28;45392;-59
2022/12/13 05:53:25;;;;;;;;;36.25;29.00;;;;;0.16;54.82;99753.25;5022168;28;45632;-59
2022/12/13 05:55:50;;;;;;;;;28.75;28.50;;;;;0.17;55.60;99754.97;5035696;28;45424;-58
2022/12/13 05:58:16;;;;;;;;;35.50;31.25;;;;;0.16;55.54;99761.88;5036368;28;45420;-58
2022/12/13 06:00:42;;;;;;;;;36.50;32.00;;;;;0.13;54.72;99748.94;5035485;28;45415;-57
2022/12/13 06:03:08;;;;;;;;;31.50;26.75;;;;;0.21;56.46;99760.09;5034731;28;45365;-55
2022/12/13 06:05:33;;;;;;;;;31.25;25.25;;;;;0.24;56.56;99766.13;5036197;28;45407;-56
2022/12/13 06:07:59;;;;;;;;;32.00;26.25;;;;;0.26;56.10;99760.06;5036605;28;45523;-59
2022/12/13 06:10:25;;;;;;;;;26.50;24.25;;;;;0.26;55.83;99764.41;5036202;28;45392;-58
2022/12/13 06:12:51;;;;;;;;;30.00;28.00;;;;;0.29;54.79;99785.06;5028495;28;45678;-53
2022/12/13 06:15:16;;;;;;;;;31.25;28.50;;;;;0.34;55.71;99789.31;5032958;28;45669;-59
2022/12/13 06:17:41;;;;;;;;;31.50;22.50;;;;;0.40;56.09;99785.84;5036727;28;45475;-55
2022/12/13 06:20:07;;;;;;;;;29.50;27.50;;;;;0.39;55.13;99774.63;5025846;28;45486;-56
2022/12/13 06:22:33;;;;;;;;;34.00;30.00;;;;;0.37;54.74;99786.72;5029763;28;46865;-55
2022/12/13 06:25:00;;;;;;;;;31.50;27.50;;;;;0.31;54.48;99776.41;5036564;28;45491;-56
2022/12/13 06:27:25;;;;;;;;;32.75;31.50;;;;;0.39;55.55;99786.72;5036471;28;45416;-55
2022/12/13 06:29:51;;;;;;;;;31.00;31.00;;;;;0.41;54.28;99782.41;5032527;28;45426;-53
2022/12/13 06:32:16;;;;;;;;;31.50;29.50;;;;;0.41;55.76;99785.84;5030395;28;46473;-56
2022/12/13 06:34:41;;;;;;;;;31.50;28.00;;;;;0.40;54.98;99784.13;5036162;28;45527;-54
2022/12/13 06:37:10;;;;;;;;;32.50;26.00;;;;;0.45;55.18;99786.66;5036427;28;45460;-53
2022/12/13 06:39:36;;;;;;;;;28.00;25.25;;;;;0.43;55.67;99784.09;5035970;28;45649;-53
2022/12/13 06:42:04;;;;;;;;;34.25;32.50;;;;;0.43;54.59;99778.94;5025411;28;46071;-59
2022/12/13 06:44:30;;;;;;;;;31.00;27.00;;;;;0.46;55.49;99780.63;5024517;28;45411;-53
2022/12/13 06:46:56;;;;;;;;;31.00;31.00;;;;;0.48;55.88;99775.44;5028648;28;45449;-60
2022/12/13 06:49:21;;;;;;;;;33.00;28.00;;;;;0.44;54.23;99772.03;5021713;28;45476;-56
2022/12/13 06:51:46;;;;;;;;;27.00;27.00;;;;;0.42;54.89;99776.34;5031658;28;45482;-59
2022/12/13 06:54:12;;;;;;;;;34.50;29.75;;;;;0.36;53.95;99753.13;5035837;28;45541;-60
2022/12/13 06:56:37;;;;;;;;;33.75;27.00;;;;;0.35;54.69;99759.16;5035688;28;45352;-56
2022/12/13 06:59:02;;;;;;;;;37.25;31.25;;;;;0.30;55.21;99755.75;5035538;28;45650;-55
2022/12/13 07:01:29;;;;;;;;;37.00;31.50;;;;;0.33;54.21;99759.19;5029191;28;46066;-58
2022/12/13 07:03:57;;;;;;;;;34.25;32.00;;;;;0.27;54.59;99750.59;5033129;28;45654;-60
2022/12/13 07:06:24;;;;;;;;;21.75;16.50;;;;;0.24;54.17;99746.28;5025562;28;45472;-58
2022/12/13 07:08:55;;;;;;;;;33.00;31.00;;;;;0.28;53.97;99747.16;5035427;28;45365;-55
2022/12/13 07:11:23;;;;;;;;;35.25;31.25;;;;;0.32;55.74;99743.66;5034237;28;45411;-57
2022/12/13 07:13:50;;;;;;;;;36.75;36.25;;;;;0.33;54.96;99748.81;5029715;28;45486;-58
2022/12/13 07:16:15;;;;;;;;;30.00;28.50;;;;;0.35;54.30;99749.69;5029809;28;45551;-55
2022/12/13 07:18:41;;;;;;;;;39.25;32.00;;;;;0.26;53.99;99741.97;5028773;28;45480;-57
2022/12/13 07:21:09;;;;;;;;;35.25;34.75;;;;;0.28;54.84;99755.75;5016595;28;46121;-54
2022/12/13 07:23:35;;;;;;;;;31.75;30.50;;;;;0.27;55.21;99763.50;5027579;28;45630;-54
2022/12/13 07:26:01;;;;;;;;;34.75;32.75;;;;;0.29;55.06;99761.78;5033786;28;45486;-53
2022/12/13 07:28:27;;;;;;;;;33.50;32.25;;;;;0.31;55.52;99776.41;5035580;28;45479;-54
2022/12/13 07:30:53;;;;;;;;;38.50;30.25;;;;;0.30;53.94;99779.88;5029344;28;46346;-60
2022/12/13 07:33:18;;;;;;;;;34.25;30.75;;;;;0.27;53.96;99785.09;5023152;28;45419;-60
2022/12/13 07:35:44;;;;;;;;;34.25;29.50;;;;;0.22;54.92;99787.69;5024744;28;45584;-60
2022/12/13 07:38:10;;;;;;;;;25.75;23.25;;;;;0.19;54.82;99782.53;5028041;28;45522;-60
2022/12/13 07:40:38;;;;;;;;;39.75;34.25;;;;;0.19;55.22;99777.38;5028360;28;45624;-57
2022/12/13 07:43:04;;;;;;;;;38.00;34.00;;;;;0.14;54.86;99773.97;5031519;28;45491;-57
2022/12/13 07:45:29;;;;;;;;;35.75;30.75;;;;;0.19;54.36;99779.97;5036109;28;45447;-57
2022/12/13 07:47:55;;;;;;;;;32.75;31.25;;;;;0.18;55.09;99785.97;5018814;28;45507;-57
2022/12/13 07:50:20;;;;;;;;;38.25;35.25;;;;;0.15;54.52;99796.34;5032713;28;45510;-53
2022/12/13 07:52:47;;;;;;;;;34.25;32.50;;;;;0.12;54.69;99804.13;5026714;28;45386;-53
2022/12/13 07:55:13;;;;;;;;;37.25;34.75;;;;;0.12;55.23;99809.28;5034705;28;45443;-56
2022/12/13 07:57:39;;;;;;;;;39.75;36.50;;;;;0.13;55.25;99818.75;5035028;28;45495;-57
2022/12/13 08:00:05;;;;;;;;;34.75;32.50;;;;;0.10;54.84;99811.03;5034170;28;45950;-57
2022/12/13 08:02:30;;;;;;;;;42.50;40.00;;;;;0.09;54.33;99816.22;5022822;28;45506;-57
2022/12/13 08:04:56;;;;;;;;;32.25;32.00;;;;;0.07;54.75;99826.56;5034754;28;45475;-53
2022/12/13 08:07:22;;;;;;;;;40.00;35.50;;;;;0.03;54.85;99826.56;5020845;28;45554;-58
2022/12/13 08:09:47;;;;;;;;;40.50;36.00;;;;;-0.01;54.64;99818.84;5034567;28;46331;-58
2022/12/13 08:12:12;;;;;;;;;44.25;41.25;;;;;0.08;55.56;99820.53;5033142;28;45489;-56
2022/12/13 08:14:37;;;;;;;;;33.75;30.50;;;;;0.09;55.37;99822.25;5034682;28;45408;-54
2022/12/13 08:17:03;;;;;;;;;44.00;33.25;;;;;0.11;56.08;99828.28;5034418;28;45461;-59
2022/12/13 08:19:28;;;;;;;;;40.00;38.75;;;;;0.07;54.59;99831.72;5034328;28;45400;-58
2022/12/13 08:21:55;;;;;;;;;45.25;37.00;;;;;0.06;55.34;99832.59;5033330;28;45501;-55
2022/12/13 08:24:22;;;;;;;;;43.75;36.75;;;;;0.06;54.74;99835.19;5034432;28;45527;-57
2022/12/13 08:26:47;;;;;;;;;39.50;36.50;;;;;0.07;55.54;99834.31;5034355;28;45621;-56
2022/12/13 08:29:13;;;;;;;;;43.25;41.25;;;;;0.13;54.82;99829.09;5034074;28;46144;-56
2022/12/13 08:31:38;;;;;;;;;42.25;40.25;;;;;0.18;55.21;99832.53;5033121;28;45435;-59
2022/12/13 08:34:04;;;;;;;;;49.75;40.50;;;;;0.20;54.97;99827.34;5030017;28;45464;-57
2022/12/13 08:36:29;;;;;;;;;39.75;36.50;;;;;0.20;55.17;99830.78;5034429;28;45427;-56
2022/12/13 08:38:55;;;;;;;;;47.00;41.00;;;;;0.26;55.74;99844.56;5034094;28;46217;-57
2022/12/13 08:41:21;;;;;;;;;47.75;40.75;;;;;0.13;55.42;99842.03;5033020;28;45417;-54
2022/12/13 08:43:47;;;;;;;;;52.00;41.25;;;;;0.21;54.67;99840.25;5022258;28;45457;-57
2022/12/13 08:46:13;;;;;;;;;46.00;37.75;;;;;0.19;55.66;99826.50;5033829;28;45384;-55
2022/12/13 08:48:38;;;;;;;;;36.25;33.50;;;;;0.15;55.96;99840.28;5023193;28;45405;-58
2022/12/13 08:51:06;;;;;;;;;44.00;35.50;;;;;0.18;55.37;99844.59;5036274;28;45400;-59
2022/12/13 08:53:32;;;;;;;;;46.75;42.00;;;;;0.11;55.59;99833.44;5029885;28;45418;-55
2022/12/13 08:56:02;;;;;;;;;44.75;41.25;;;;;0.14;55.84;99854.09;5037344;28;45615;-56
2022/12/13 08:58:28;;;;;;;;;44.00;42.00;;;;;0.12;54.57;99847.22;5037111;28;46180;-53
2022/12/13 09:00:54;;;;;;;;;46.75;38.50;;;;;0.02;56.08;99828.31;5032272;28;45412;-58
2022/12/13 09:03:20;;;;;;;;;54.25;47.00;;;;;0.15;55.71;99842.88;5032292;28;45388;-59
2022/12/13 09:05:45;;;;;;;;;47.75;40.75;;;;;0.11;55.50;99838.63;5037298;28;45605;-54
2022/12/13 09:08:10;;;;;;;;;46.25;41.50;;;;;0.09;55.29;99830.00;5037145;28;45526;-51
2022/12/13 09:10:36;;;;;;;;;43.25;40.50;;;;;0.16;55.04;99828.22;5035735;28;45547;-56
2022/12/13 09:13:02;;;;;;;;;44.00;38.75;;;;;0.19;56.07;99816.16;5037114;28;45487;-57
2022/12/13 09:15:29;;;;;;;;;45.25;41.00;;;;;0.20;54.61;99814.44;5037298;28;45557;-54
2022/12/13 09:17:54;;;;;;;;;44.75;40.25;;;;;0.20;55.58;99817.88;5036872;28;45895;-50
2022/12/13 09:20:20;;;;;;;;;41.00;40.75;;;;;0.19;55.10;99811.00;5036760;28;45427;-52
2022/12/13 09:22:45;;;;;;;;;45.50;36.25;;;;;0.19;55.41;99805.81;5023867;28;45514;-58
2022/12/13 09:25:10;;;;;;;;;45.75;41.50;;;;;0.25;55.97;99809.25;5037070;28;45436;-51
2022/12/13 09:27:36;;;;;;;;;52.00;41.75;;;;;0.21;54.74;99804.06;5036780;28;45465;-53
2022/12/13 09:30:02;;;;;;;;;42.50;41.00;;;;;0.27;54.08;99812.66;5035493;28;45526;-56
2022/12/13 09:32:28;;;;;;;;;44.00;40.00;;;;;0.27;55.40;99817.81;5022128;28;45360;-51
2022/12/13 09:34:53;;;;;;;;;45.75;42.75;;;;;0.32;54.92;99826.41;5037074;28;45626;-52
2022/12/13 09:37:19;;;;;;;;;44.50;41.50;;;;;0.31;55.51;99824.72;5036646;28;46461;-54
2022/12/13 09:39:46;;;;;;;;;44.75;42.25;;;;;0.21;55.38;99814.41;5036568;28;45371;-55
2022/12/13 09:42:22;;;;;;;;;42.50;40.75;;;;;0.24;54.14;99820.44;5034783;28;45524;-56
2022/12/13 09:44:51;;;;;;;;;45.50;40.50;;;;;0.21;54.19;99824.75;5036723;28;45595;-54
2022/12/13 09:47:41;;;;;;;;;44.25;41.00;;;;;0.21;53.96;99824.75;5028205;28;46311;-55
2022/12/13 09:50:12;;;;;;;;;47.50;41.75;;;;;0.20;55.14;99812.69;5033285;28;45468;-54
2022/12/13 09:52:41;;;;;;;;;45.25;40.50;;;;;0.31;54.09;99824.72;5029358;28;45359;-56
2022/12/13 09:55:35;;;;;;;;;48.50;41.00;;;;;0.30;55.56;99823.00;5036333;28;45559;-52
2022/12/13 09:58:07;;;;;;;;;44.00;39.25;;;;;0.31;54.59;99819.53;5029092;28;45561;-55
2022/12/13 10:00:34;;;;;;;;;51.50;44.25;;;;;0.36;55.72;99812.59;5035848;28;45381;-57
2022/12/13 10:03:00;;;;;;;;;45.25;41.00;;;;;0.38;55.11;99816.06;5026401;28;45600;-54
2022/12/13 10:05:36;;;;;;;;;45.00;41.00;;;;;0.35;55.56;99818.63;5034598;28;45501;-53
2022/12/13 10:08:04;;;;;;;;;45.25;41.75;;;;;0.36;54.79;99817.78;5036484;28;45481;-56
2022/12/13 10:10:30;;;;;;;;;51.50;43.25;;;;;0.33;55.21;99807.47;5032415;28;45398;-59
2022/12/13 10:13:09;;;;;;;;;49.50;43.25;;;;;0.27;54.36;99800.59;5026400;28;45439;-56
2022/12/13 10:15:40;;;;;;;;;55.75;40.50;;;;;0.36;55.09;99810.03;5033674;28;45436;-57
2022/12/13 10:18:08;;;;;;;;;50.00;43.25;;;;;0.37;54.32;99809.13;5036009;28;45663;-54
2022/12/13 10:20:34;;;;;;;;;41.00;35.50;;;;;0.37;54.68;99822.06;5036105;28;45492;-54
2022/12/13 10:22:59;;;;;;;;;46.75;40.75;;;;;0.37;54.89;99814.31;5024921;28;45496;-53
2022/12/13 10:25:45;;;;;;;;;51.50;43.50;;;;;0.40;54.70;99814.28;5034819;28;45567;-57
2022/12/13 10:28:10;;;;;;;;;50.00;41.50;;;;;0.40;54.17;99804.81;5032457;28;45475;-54
2022/12/13 10:30:41;;;;;;;;;48.00;43.25;;;;;0.49;53.71;99810.81;5031283;28;45460;-58
2022/12/13 10:33:32;;;;;;;;;49.25;41.00;;;;;0.47;54.87;99808.22;5030759;28;45598;-57
2022/12/13 10:36:31;;;;;;;;;49.75;38.25;;;;;0.46;54.90;99806.50;5035923;28;45604;-54
2022/12/13 10:38:57;;;;;;;;;42.25;41.00;;;;;0.50;54.19;99810.78;5034265;28;48294;-58
2022/12/13 10:41:29;;;;;;;;;46.25;42.00;;;;;0.49;53.57;99800.47;5035928;28;45412;-58
2022/12/13 10:44:10;;;;;;;;;51.00;44.75;;;;;0.53;54.36;99797.81;5034881;28;45380;-50
2022/12/13 10:46:38;;;;;;;;;47.50;40.50;;;;;0.57;54.08;99806.44;5033413;28;45399;-59
2022/12/13 10:49:15;;;;;;;;;41.50;41.00;;;;;0.51;54.49;99786.63;5024799;28;46464;-57
2022/12/13 10:51:40;;;;;;;;;44.00;38.00;;;;;0.66;53.90;99799.44;5035541;28;45443;-58
2022/12/13 10:54:16;;;;;;;;;48.00;39.75;;;;;0.71;53.56;99793.38;5034810;28;45602;-57
2022/12/13 10:56:47;;;;;;;;;51.00;46.00;;;;;0.66;53.33;99786.50;5035636;28;45392;-56
2022/12/13 10:59:26;;;;;;;;;45.00;42.50;;;;;0.73;53.40;99771.78;5035393;28;45492;-55
2022/12/13 11:01:52;;;;;;;;;53.75;45.25;;;;;0.75;53.42;99769.19;5034132;28;45426;-54
2022/12/13 11:04:28;;;;;;;;;44.00;40.00;;;;;0.83;53.98;99775.13;5024045;28;45385;-54
2022/12/13 11:06:56;;;;;;;;;45.75;41.00;;;;;0.81;53.15;99756.19;5035525;28;45437;-54
2022/12/13 11:09:28;;;;;;;;;51.25;42.50;;;;;0.94;53.90;99768.16;5034840;28;45558;-55
2022/12/13 11:11:57;;;;;;;;;49.75;41.00;;;;;0.98;53.88;99764.66;5022423;28;45444;-57
2022/12/13 11:14:32;;;;;;;;;48.00;42.50;;;;;0.95;53.28;99758.66;5033817;28;45476;-56
2022/12/13 11:17:05;;;;;;;;;50.75;44.00;;;;;0.96;53.54;99742.25;5035026;28;45541;-53
2022/12/13 11:19:47;;;;;;;;;55.00;43.75;;;;;0.96;53.72;99737.06;5035010;28;47022;-54
2022/12/13 11:22:28;;;;;;;;;46.75;43.00;;;;;0.99;53.35;99743.06;5035109;28;45405;-55
2022/12/13 11:25:28;;;;;;;;;50.00;41.50;;;;;0.99;53.93;99755.16;5026737;28;45463;-56
2022/12/13 11:28:02;;;;;;;;;55.00;44.25;;;;;1.01;54.33;99753.41;5020958;28;45562;-52
2022/12/13 11:31:02;;;;;;;;;49.75;41.75;;;;;1.07;53.71;99743.84;5034906;28;45452;-57
2022/12/13 11:34:13;;;;;;;;;48.50;42.75;;;;;1.13;53.49;99739.47;5034863;28;45402;-55
2022/12/13 11:36:53;;;;;;;;;44.00;41.75;;;;;1.12;53.55;99730.00;5015044;28;45501;-57